sensor_id;sensor_type;location;lat;lon;timestamp;temperature;humidity
15343;DHT22;7771;48.478;8.936;2023-04-03T00:01:48;6.50;99.90
15343;DHT22;7771;48.478;8.936;2023-04-03T00:04:16;6.50;99.90
15343;DHT22;7771;48.478;8.936;2023-04-03T00:06:43;6.50;99.90
15343;DHT22;7771;48.478;8.936;2023-04-03T00:09:11;6.40;99.90
15343;DHT22;7771;48.478;8.936;2023-04-03T00:11:38;6.40;99.90
15343;DHT22;7771;48.478;8.936;2023-04-03T00:14:06;6.40;99.90
15343;DHT22;7771;48.478;8.936;2023-04-03T00:16:33;6.40;99.90
15343;DHT22;7771;48.478;8.936;2023-04-03T00:19:00;6.50;99.90
15343;DHT22;7771;48.478;8.936;2023-04-03T00:21:27;6.60;99.90
15343;DHT22;7771;48.478;8.936;2023-04-03T00:26:22;6.50;99.90
15343;DHT22;7771;48.478;8.936;2023-04-03T00:28:49;6.50;99.90
15343;DHT22;7771;48.478;8.936;2023-04-03T00:31:17;6.60;99.90
15343;DHT22;7771;48.478;8.936;2023-04-03T00:33:45;6.60;99.90
15343;DHT22;7771;48.478;8.936;2023-04-03T00:36:12;6.50;99.90
15343;DHT22;7771;48.478;8.936;2023-04-03T00:38:38;6.50;99.90
15343;DHT22;7771;48.478;8.936;2023-04-03T00:41:05;6.50;99.90
15343;DHT22;7771;48.478;8.936;2023-04-03T00:43:32;6.50;99.90
15343;DHT22;7771;48.478;8.936;2023-04-03T00:45:59;6.50;99.90
15343;DHT22;7771;48.478;8.936;2023-04-03T00:48:28;6.50;99.90
15343;DHT22;7771;48.478;8.936;2023-04-03T00:50:54;6.50;99.90
15343;DHT22;7771;48.478;8.936;2023-04-03T00:53:22;6.50;99.90
15343;DHT22;7771;48.478;8.936;2023-04-03T00:55:48;6.60;99.90
15343;DHT22;7771;48.478;8.936;2023-04-03T00:58:15;6.60;99.90
15343;DHT22;7771;48.478;8.936;2023-04-03T01:00:43;6.50;99.90
15343;DHT22;7771;48.478;8.936;2023-04-03T01:03:10;6.50;99.90
15343;DHT22;7771;48.478;8.936;2023-04-03T01:05:39;6.50;99.90
15343;DHT22;7771;48.478;8.936;2023-04-03T01:08:05;6.50;99.90
15343;DHT22;7771;48.478;8.936;2023-04-03T01:10:32;6.50;99.90
15343;DHT22;7771;48.478;8.936;2023-04-03T01:12:59;6.60;99.90
15343;DHT22;7771;48.478;8.936;2023-04-03T01:15:26;6.60;99.90
15343;DHT22;7771;48.478;8.936;2023-04-03T01:17:53;6.60;99.90
15343;DHT22;7771;48.478;8.936;2023-04-03T01:20:44;6.50;99.90
15343;DHT22;7771;48.478;8.936;2023-04-03T01:23:15;6.60;99.90
15343;DHT22;7771;48.478;8.936;2023-04-03T01:25:42;6.50;99.90
15343;DHT22;7771;48.478;8.936;2023-04-03T01:28:08;6.50;99.90
15343;DHT22;7771;48.478;8.936;2023-04-03T01:30:36;6.50;99.90
15343;DHT22;7771;48.478;8.936;2023-04-03T01:33:02;6.50;99.90
15343;DHT22;7771;48.478;8.936;2023-04-03T01:35:29;6.50;99.90
15343;DHT22;7771;48.478;8.936;2023-04-03T01:40:24;6.50;99.90
15343;DHT22;7771;48.478;8.936;2023-04-03T01:42:51;6.40;99.90
15343;DHT22;7771;48.478;8.936;2023-04-03T01:45:18;6.40;99.90
15343;DHT22;7771;48.478;8.936;2023-04-03T01:47:45;6.40;99.90
15343;DHT22;7771;48.478;8.936;2023-04-03T01:52:40;6.30;99.90
15343;DHT22;7771;48.478;8.936;2023-04-03T01:55:07;6.30;99.90
15343;DHT22;7771;48.478;8.936;2023-04-03T01:57:33;6.30;99.90
15343;DHT22;7771;48.478;8.936;2023-04-03T02:00:01;6.30;99.90
15343;DHT22;7771;48.478;8.936;2023-04-03T02:02:29;6.30;99.90
15343;DHT22;7771;48.478;8.936;2023-04-03T02:04:55;6.30;99.90
15343;DHT22;7771;48.478;8.936;2023-04-03T02:07:23;6.40;99.90
15343;DHT22;7771;48.478;8.936;2023-04-03T02:09:49;6.40;99.90
15343;DHT22;7771;48.478;8.936;2023-04-03T02:12:16;6.40;99.90
15343;DHT22;7771;48.478;8.936;2023-04-03T02:14:43;6.40;99.90
15343;DHT22;7771;48.478;8.936;2023-04-03T02:17:10;6.30;99.90
15343;DHT22;7771;48.478;8.936;2023-04-03T02:19:38;6.30;99.90
15343;DHT22;7771;48.478;8.936;2023-04-03T02:22:05;6.30;99.90
15343;DHT22;7771;48.478;8.936;2023-04-03T02:24:33;6.30;99.90
15343;DHT22;7771;48.478;8.936;2023-04-03T02:26:59;6.30;99.90
15343;DHT22;7771;48.478;8.936;2023-04-03T02:29:27;6.30;99.90
15343;DHT22;7771;48.478;8.936;2023-04-03T02:31:55;6.30;99.90
15343;DHT22;7771;48.478;8.936;2023-04-03T02:34:22;6.30;99.90
15343;DHT22;7771;48.478;8.936;2023-04-03T02:36:48;6.20;99.90
15343;DHT22;7771;48.478;8.936;2023-04-03T02:39:16;6.20;99.90
15343;DHT22;7771;48.478;8.936;2023-04-03T02:41:42;6.20;99.90
15343;DHT22;7771;48.478;8.936;2023-04-03T02:44:09;6.20;99.90
15343;DHT22;7771;48.478;8.936;2023-04-03T02:46:36;6.20;99.90
15343;DHT22;7771;48.478;8.936;2023-04-03T02:49:03;6.30;99.90
15343;DHT22;7771;48.478;8.936;2023-04-03T02:51:30;6.40;99.90
15343;DHT22;7771;48.478;8.936;2023-04-03T02:53:57;6.30;99.90
15343;DHT22;7771;48.478;8.936;2023-04-03T02:56:23;6.20;99.90
15343;DHT22;7771;48.478;8.936;2023-04-03T02:58:50;6.20;99.90
15343;DHT22;7771;48.478;8.936;2023-04-03T03:01:17;6.20;99.90
15343;DHT22;7771;48.478;8.936;2023-04-03T03:03:44;6.20;99.90
15343;DHT22;7771;48.478;8.936;2023-04-03T03:06:12;6.20;99.90
15343;DHT22;7771;48.478;8.936;2023-04-03T03:08:38;6.00;99.90
15343;DHT22;7771;48.478;8.936;2023-04-03T03:11:05;6.00;99.90
15343;DHT22;7771;48.478;8.936;2023-04-03T03:13:32;6.00;99.90
15343;DHT22;7771;48.478;8.936;2023-04-03T03:15:59;6.40;99.90
15343;DHT22;7771;48.478;8.936;2023-04-03T03:18:26;6.00;99.90
15343;DHT22;7771;48.478;8.936;2023-04-03T03:20:57;6.00;99.90
15343;DHT22;7771;48.478;8.936;2023-04-03T03:23:23;6.10;99.90
15343;DHT22;7771;48.478;8.936;2023-04-03T03:25:53;6.00;99.90
15343;DHT22;7771;48.478;8.936;2023-04-03T03:28:16;6.00;99.90
15343;DHT22;7771;48.478;8.936;2023-04-03T03:30:42;6.00;99.90
15343;DHT22;7771;48.478;8.936;2023-04-03T03:33:09;6.00;99.90
15343;DHT22;7771;48.478;8.936;2023-04-03T03:35:36;6.00;99.90
15343;DHT22;7771;48.478;8.936;2023-04-03T03:38:02;6.00;99.90
15343;DHT22;7771;48.478;8.936;2023-04-03T03:40:29;6.00;99.90
15343;DHT22;7771;48.478;8.936;2023-04-03T03:42:56;5.90;99.90
15343;DHT22;7771;48.478;8.936;2023-04-03T03:45:24;6.00;99.90
15343;DHT22;7771;48.478;8.936;2023-04-03T03:47:51;6.00;99.90
15343;DHT22;7771;48.478;8.936;2023-04-03T03:50:19;6.10;99.90
15343;DHT22;7771;48.478;8.936;2023-04-03T03:52:46;6.10;99.90
15343;DHT22;7771;48.478;8.936;2023-04-03T03:55:13;6.10;99.90
15343;DHT22;7771;48.478;8.936;2023-04-03T03:57:40;6.00;99.90
15343;DHT22;7771;48.478;8.936;2023-04-03T04:00:08;6.00;99.90
15343;DHT22;7771;48.478;8.936;2023-04-03T04:02:35;6.00;99.90
15343;DHT22;7771;48.478;8.936;2023-04-03T04:05:03;5.90;99.90
15343;DHT22;7771;48.478;8.936;2023-04-03T04:07:30;6.00;99.90
15343;DHT22;7771;48.478;8.936;2023-04-03T04:09:58;6.00;99.90
15343;DHT22;7771;48.478;8.936;2023-04-03T04:12:25;5.90;99.90
15343;DHT22;7771;48.478;8.936;2023-04-03T04:14:52;5.90;99.90
15343;DHT22;7771;48.478;8.936;2023-04-03T04:17:20;5.80;99.90
15343;DHT22;7771;48.478;8.936;2023-04-03T04:19:46;5.90;99.90
15343;DHT22;7771;48.478;8.936;2023-04-03T04:22:14;6.00;99.90
15343;DHT22;7771;48.478;8.936;2023-04-03T04:24:41;6.10;99.90
15343;DHT22;7771;48.478;8.936;2023-04-03T04:27:08;6.00;99.90
15343;DHT22;7771;48.478;8.936;2023-04-03T04:29:34;5.90;99.90
15343;DHT22;7771;48.478;8.936;2023-04-03T04:32:03;5.90;99.90
15343;DHT22;7771;48.478;8.936;2023-04-03T04:34:29;5.80;99.90
15343;DHT22;7771;48.478;8.936;2023-04-03T04:36:56;5.80;99.90
15343;DHT22;7771;48.478;8.936;2023-04-03T04:39:23;5.80;99.90
15343;DHT22;7771;48.478;8.936;2023-04-03T04:41:51;5.80;99.90
15343;DHT22;7771;48.478;8.936;2023-04-03T04:44:18;5.80;99.90
15343;DHT22;7771;48.478;8.936;2023-04-03T04:49:13;5.80;99.90
15343;DHT22;7771;48.478;8.936;2023-04-03T04:51:40;5.80;99.90
15343;DHT22;7771;48.478;8.936;2023-04-03T04:54:07;5.80;99.90
15343;DHT22;7771;48.478;8.936;2023-04-03T04:56:33;5.90;99.90
15343;DHT22;7771;48.478;8.936;2023-04-03T04:59:01;5.90;99.90
15343;DHT22;7771;48.478;8.936;2023-04-03T05:01:29;5.90;99.90
15343;DHT22;7771;48.478;8.936;2023-04-03T05:03:56;5.90;99.90
15343;DHT22;7771;48.478;8.936;2023-04-03T05:06:23;5.80;99.90
15343;DHT22;7771;48.478;8.936;2023-04-03T05:08:49;6.00;99.90
15343;DHT22;7771;48.478;8.936;2023-04-03T05:11:16;6.00;99.90
15343;DHT22;7771;48.478;8.936;2023-04-03T05:13:43;6.00;99.90
15343;DHT22;7771;48.478;8.936;2023-04-03T05:16:10;6.00;99.90
15343;DHT22;7771;48.478;8.936;2023-04-03T05:18:36;5.90;99.90
15343;DHT22;7771;48.478;8.936;2023-04-03T05:21:03;5.90;99.90
15343;DHT22;7771;48.478;8.936;2023-04-03T05:23:31;5.90;99.90
15343;DHT22;7771;48.478;8.936;2023-04-03T05:25:58;5.90;99.90
15343;DHT22;7771;48.478;8.936;2023-04-03T05:28:26;6.00;99.90
15343;DHT22;7771;48.478;8.936;2023-04-03T05:30:54;6.00;99.90
15343;DHT22;7771;48.478;8.936;2023-04-03T05:33:20;6.00;99.90
15343;DHT22;7771;48.478;8.936;2023-04-03T05:35:48;6.00;99.90
15343;DHT22;7771;48.478;8.936;2023-04-03T05:38:15;6.00;99.90
15343;DHT22;7771;48.478;8.936;2023-04-03T05:43:10;6.00;99.90
15343;DHT22;7771;48.478;8.936;2023-04-03T05:45:38;6.00;99.90
15343;DHT22;7771;48.478;8.936;2023-04-03T05:48:05;6.10;99.90
15343;DHT22;7771;48.478;8.936;2023-04-03T05:50:32;6.10;99.90
15343;DHT22;7771;48.478;8.936;2023-04-03T05:52:59;6.10;99.90
15343;DHT22;7771;48.478;8.936;2023-04-03T05:55:26;6.10;99.90
15343;DHT22;7771;48.478;8.936;2023-04-03T05:57:53;6.10;99.90
15343;DHT22;7771;48.478;8.936;2023-04-03T06:00:20;6.10;99.90
15343;DHT22;7771;48.478;8.936;2023-04-03T06:02:46;6.10;99.90
15343;DHT22;7771;48.478;8.936;2023-04-03T06:05:14;6.10;99.90
15343;DHT22;7771;48.478;8.936;2023-04-03T06:12:37;6.00;99.90
15343;DHT22;7771;48.478;8.936;2023-04-03T06:15:05;6.10;99.90
15343;DHT22;7771;48.478;8.936;2023-04-03T06:17:33;6.10;99.90
15343;DHT22;7771;48.478;8.936;2023-04-03T06:20:01;6.20;99.90
15343;DHT22;7771;48.478;8.936;2023-04-03T06:22:29;6.10;99.90
15343;DHT22;7771;48.478;8.936;2023-04-03T06:24:56;6.10;99.90
15343;DHT22;7771;48.478;8.936;2023-04-03T06:27:22;6.20;99.90
15343;DHT22;7771;48.478;8.936;2023-04-03T06:29:49;6.30;99.90
15343;DHT22;7771;48.478;8.936;2023-04-03T06:32:16;6.30;99.90
15343;DHT22;7771;48.478;8.936;2023-04-03T06:34:43;6.20;99.90
15343;DHT22;7771;48.478;8.936;2023-04-03T06:37:21;6.40;99.90
15343;DHT22;7771;48.478;8.936;2023-04-03T06:39:48;6.50;99.90
15343;DHT22;7771;48.478;8.936;2023-04-03T06:42:14;6.50;99.90
15343;DHT22;7771;48.478;8.936;2023-04-03T06:47:10;6.50;99.90
15343;DHT22;7771;48.478;8.936;2023-04-03T06:49:36;6.50;99.90
15343;DHT22;7771;48.478;8.936;2023-04-03T06:52:02;6.50;99.90
15343;DHT22;7771;48.478;8.936;2023-04-03T06:59:58;6.60;99.90
15343;DHT22;7771;48.478;8.936;2023-04-03T07:02:24;6.70;99.90
15343;DHT22;7771;48.478;8.936;2023-04-03T07:04:51;6.60;99.90
15343;DHT22;7771;48.478;8.936;2023-04-03T07:07:18;6.70;99.90
15343;DHT22;7771;48.478;8.936;2023-04-03T07:09:44;6.70;99.90
15343;DHT22;7771;48.478;8.936;2023-04-03T07:12:11;6.90;99.90
15343;DHT22;7771;48.478;8.936;2023-04-03T07:14:39;6.80;99.90
15343;DHT22;7771;48.478;8.936;2023-04-03T07:17:06;6.80;99.90
15343;DHT22;7771;48.478;8.936;2023-04-03T07:19:33;6.80;99.90
15343;DHT22;7771;48.478;8.936;2023-04-03T07:22:01;6.80;99.90
15343;DHT22;7771;48.478;8.936;2023-04-03T07:24:29;6.80;99.90
15343;DHT22;7771;48.478;8.936;2023-04-03T07:26:56;6.90;99.90
15343;DHT22;7771;48.478;8.936;2023-04-03T07:29:23;7.00;99.90
15343;DHT22;7771;48.478;8.936;2023-04-03T07:31:50;7.10;99.90
15343;DHT22;7771;48.478;8.936;2023-04-03T07:34:17;7.10;99.90
15343;DHT22;7771;48.478;8.936;2023-04-03T07:36:45;7.30;99.90
15343;DHT22;7771;48.478;8.936;2023-04-03T07:39:12;7.40;99.90
15343;DHT22;7771;48.478;8.936;2023-04-03T07:41:39;7.50;99.90
15343;DHT22;7771;48.478;8.936;2023-04-03T07:44:07;7.60;99.90
15343;DHT22;7771;48.478;8.936;2023-04-03T07:46:34;7.60;99.90
15343;DHT22;7771;48.478;8.936;2023-04-03T07:49:00;7.70;99.90
15343;DHT22;7771;48.478;8.936;2023-04-03T07:51:27;7.70;99.90
15343;DHT22;7771;48.478;8.936;2023-04-03T07:53:54;7.90;99.90
15343;DHT22;7771;48.478;8.936;2023-04-03T07:56:22;7.90;99.90
15343;DHT22;7771;48.478;8.936;2023-04-03T07:58:49;7.90;99.90
15343;DHT22;7771;48.478;8.936;2023-04-03T08:01:16;8.00;99.90
15343;DHT22;7771;48.478;8.936;2023-04-03T08:03:44;8.10;99.90
15343;DHT22;7771;48.478;8.936;2023-04-03T08:06:11;8.20;99.60
15343;DHT22;7771;48.478;8.936;2023-04-03T08:08:38;8.20;99.40
15343;DHT22;7771;48.478;8.936;2023-04-03T08:11:06;8.30;99.50
15343;DHT22;7771;48.478;8.936;2023-04-03T08:13:33;8.30;99.40
15343;DHT22;7771;48.478;8.936;2023-04-03T08:16:06;8.40;99.40
15343;DHT22;7771;48.478;8.936;2023-04-03T08:18:27;8.40;99.50
15343;DHT22;7771;48.478;8.936;2023-04-03T08:20:54;8.50;99.60
15343;DHT22;7771;48.478;8.936;2023-04-03T08:23:21;8.50;99.30
15343;DHT22;7771;48.478;8.936;2023-04-03T08:25:48;8.60;99.10
15343;DHT22;7771;48.478;8.936;2023-04-03T08:28:15;8.70;99.00
15343;DHT22;7771;48.478;8.936;2023-04-03T08:30:41;8.80;99.00
15343;DHT22;7771;48.478;8.936;2023-04-03T08:33:08;8.90;99.30
15343;DHT22;7771;48.478;8.936;2023-04-03T08:35:39;9.00;99.10
15343;DHT22;7771;48.478;8.936;2023-04-03T08:38:05;9.00;99.20
15343;DHT22;7771;48.478;8.936;2023-04-03T08:40:32;9.10;99.40
15343;DHT22;7771;48.478;8.936;2023-04-03T08:43:10;9.20;99.30
15343;DHT22;7771;48.478;8.936;2023-04-03T08:45:37;9.30;99.20
15343;DHT22;7771;48.478;8.936;2023-04-03T08:48:04;9.30;98.80
15343;DHT22;7771;48.478;8.936;2023-04-03T08:50:32;9.40;98.80
15343;DHT22;7771;48.478;8.936;2023-04-03T08:52:58;9.30;99.10
15343;DHT22;7771;48.478;8.936;2023-04-03T08:55:31;9.40;99.00
15343;DHT22;7771;48.478;8.936;2023-04-03T08:58:09;9.50;98.70
15343;DHT22;7771;48.478;8.936;2023-04-03T09:00:37;9.50;98.60
15343;DHT22;7771;48.478;8.936;2023-04-03T09:03:01;9.50;98.40
15343;DHT22;7771;48.478;8.936;2023-04-03T09:05:35;9.40;98.30
15343;DHT22;7771;48.478;8.936;2023-04-03T09:08:01;9.50;98.30
15343;DHT22;7771;48.478;8.936;2023-04-03T09:10:28;9.40;98.10
15343;DHT22;7771;48.478;8.936;2023-04-03T09:12:59;9.40;98.50
15343;DHT22;7771;48.478;8.936;2023-04-03T09:15:25;9.40;98.30
15343;DHT22;7771;48.478;8.936;2023-04-03T09:17:57;9.50;98.00
15343;DHT22;7771;48.478;8.936;2023-04-03T09:20:28;9.60;97.60
15343;DHT22;7771;48.478;8.936;2023-04-03T09:22:51;9.60;97.20
15343;DHT22;7771;48.478;8.936;2023-04-03T09:25:20;9.50;97.30
15343;DHT22;7771;48.478;8.936;2023-04-03T09:27:46;9.60;96.90
15343;DHT22;7771;48.478;8.936;2023-04-03T09:30:15;9.50;97.20
15343;DHT22;7771;48.478;8.936;2023-04-03T09:32:41;9.60;97.10
15343;DHT22;7771;48.478;8.936;2023-04-03T09:35:18;9.60;97.20
15343;DHT22;7771;48.478;8.936;2023-04-03T09:37:45;9.70;97.30
15343;DHT22;7771;48.478;8.936;2023-04-03T09:40:30;9.80;96.20
15343;DHT22;7771;48.478;8.936;2023-04-03T09:42:58;9.90;95.80
15343;DHT22;7771;48.478;8.936;2023-04-03T09:45:26;9.90;95.40
15343;DHT22;7771;48.478;8.936;2023-04-03T09:48:13;9.90;95.60
15343;DHT22;7771;48.478;8.936;2023-04-03T09:50:35;9.90;96.20
15343;DHT22;7771;48.478;8.936;2023-04-03T09:53:05;9.90;96.50
15343;DHT22;7771;48.478;8.936;2023-04-03T09:55:30;10.00;96.70
15343;DHT22;7771;48.478;8.936;2023-04-03T09:57:58;10.10;96.10
15343;DHT22;7771;48.478;8.936;2023-04-03T10:00:26;10.20;95.80
15343;DHT22;7771;48.478;8.936;2023-04-03T10:02:54;10.30;95.40
15343;DHT22;7771;48.478;8.936;2023-04-03T10:05:35;10.40;95.10
15343;DHT22;7771;48.478;8.936;2023-04-03T10:08:15;10.40;95.40
15343;DHT22;7771;48.478;8.936;2023-04-03T10:10:37;10.40;95.20
15343;DHT22;7771;48.478;8.936;2023-04-03T10:13:10;10.40;95.20
15343;DHT22;7771;48.478;8.936;2023-04-03T10:15:39;10.40;95.10
15343;DHT22;7771;48.478;8.936;2023-04-03T10:18:05;10.50;93.20
15343;DHT22;7771;48.478;8.936;2023-04-03T10:20:37;10.50;93.70
15343;DHT22;7771;48.478;8.936;2023-04-03T10:23:14;10.50;94.00
15343;DHT22;7771;48.478;8.936;2023-04-03T10:25:43;10.40;94.30
15343;DHT22;7771;48.478;8.936;2023-04-03T10:28:10;10.50;95.00
15343;DHT22;7771;48.478;8.936;2023-04-03T10:30:42;10.60;94.50
15343;DHT22;7771;48.478;8.936;2023-04-03T10:35:54;10.70;94.20
15343;DHT22;7771;48.478;8.936;2023-04-03T10:38:27;10.70;94.30
15343;DHT22;7771;48.478;8.936;2023-04-03T10:41:12;10.70;94.80
15343;DHT22;7771;48.478;8.936;2023-04-03T10:43:44;10.60;94.30
15343;DHT22;7771;48.478;8.936;2023-04-03T10:46:15;10.50;94.20
15343;DHT22;7771;48.478;8.936;2023-04-03T10:49:02;10.50;94.20
15343;DHT22;7771;48.478;8.936;2023-04-03T10:51:36;10.50;94.00
15343;DHT22;7771;48.478;8.936;2023-04-03T10:54:00;10.40;93.30
15343;DHT22;7771;48.478;8.936;2023-04-03T10:56:35;10.30;93.80
15343;DHT22;7771;48.478;8.936;2023-04-03T10:59:06;10.30;93.50
15343;DHT22;7771;48.478;8.936;2023-04-03T11:01:31;10.20;93.80
15343;DHT22;7771;48.478;8.936;2023-04-03T11:03:57;10.20;93.70
15343;DHT22;7771;48.478;8.936;2023-04-03T11:06:24;10.10;93.90
15343;DHT22;7771;48.478;8.936;2023-04-03T11:08:57;10.10;94.10
15343;DHT22;7771;48.478;8.936;2023-04-03T11:11:22;10.10;94.10
15343;DHT22;7771;48.478;8.936;2023-04-03T11:13:59;10.20;94.30
15343;DHT22;7771;48.478;8.936;2023-04-03T11:16:24;10.30;93.30
15343;DHT22;7771;48.478;8.936;2023-04-03T11:21:27;10.20;92.90
15343;DHT22;7771;48.478;8.936;2023-04-03T11:23:52;10.10;93.00
15343;DHT22;7771;48.478;8.936;2023-04-03T11:26:21;10.00;92.90
15343;DHT22;7771;48.478;8.936;2023-04-03T11:28:46;10.00;93.20
15343;DHT22;7771;48.478;8.936;2023-04-03T11:31:22;10.00;92.90
15343;DHT22;7771;48.478;8.936;2023-04-03T11:34:02;9.90;93.40
15343;DHT22;7771;48.478;8.936;2023-04-03T11:36:29;9.90;93.70
15343;DHT22;7771;48.478;8.936;2023-04-03T11:38:56;9.90;94.00
15343;DHT22;7771;48.478;8.936;2023-04-03T11:41:26;9.90;93.60
15343;DHT22;7771;48.478;8.936;2023-04-03T11:43:56;9.90;93.30
15343;DHT22;7771;48.478;8.936;2023-04-03T11:46:34;10.00;93.40
15343;DHT22;7771;48.478;8.936;2023-04-03T11:48:51;10.00;93.30
15343;DHT22;7771;48.478;8.936;2023-04-03T11:51:38;10.00;93.50
15343;DHT22;7771;48.478;8.936;2023-04-03T11:56:53;10.10;93.30
15343;DHT22;7771;48.478;8.936;2023-04-03T11:59:23;10.20;92.40
15343;DHT22;7771;48.478;8.936;2023-04-03T12:01:51;10.20;92.00
15343;DHT22;7771;48.478;8.936;2023-04-03T12:04:18;10.20;92.50
15343;DHT22;7771;48.478;8.936;2023-04-03T12:07:00;10.10;92.60
15343;DHT22;7771;48.478;8.936;2023-04-03T12:09:27;10.20;92.40
15343;DHT22;7771;48.478;8.936;2023-04-03T12:11:54;10.20;92.00
15343;DHT22;7771;48.478;8.936;2023-04-03T12:14:21;10.20;91.90
15343;DHT22;7771;48.478;8.936;2023-04-03T12:16:47;10.20;92.00
15343;DHT22;7771;48.478;8.936;2023-04-03T12:19:31;10.20;92.30
15343;DHT22;7771;48.478;8.936;2023-04-03T12:22:07;10.30;92.20
15343;DHT22;7771;48.478;8.936;2023-04-03T12:24:34;10.30;92.10
15343;DHT22;7771;48.478;8.936;2023-04-03T12:27:04;10.30;92.10
15343;DHT22;7771;48.478;8.936;2023-04-03T12:29:47;10.30;92.10
15343;DHT22;7771;48.478;8.936;2023-04-03T12:32:48;10.40;92.00
15343;DHT22;7771;48.478;8.936;2023-04-03T12:35:20;10.30;92.80
15343;DHT22;7771;48.478;8.936;2023-04-03T12:37:57;10.30;92.80
15343;DHT22;7771;48.478;8.936;2023-04-03T12:45:46;10.10;93.00
15343;DHT22;7771;48.478;8.936;2023-04-03T12:48:16;10.20;92.40
15343;DHT22;7771;48.478;8.936;2023-04-03T12:50:43;10.10;92.00
15343;DHT22;7771;48.478;8.936;2023-04-03T12:53:14;10.10;92.30
15343;DHT22;7771;48.478;8.936;2023-04-03T12:55:40;10.00;93.20
15343;DHT22;7771;48.478;8.936;2023-04-03T12:58:14;9.90;93.10
15343;DHT22;7771;48.478;8.936;2023-04-03T13:00:39;9.90;92.80
15343;DHT22;7771;48.478;8.936;2023-04-03T13:03:06;9.90;92.30
15343;DHT22;7771;48.478;8.936;2023-04-03T13:05:33;9.90;92.30
15343;DHT22;7771;48.478;8.936;2023-04-03T13:08:03;10.00;92.30
15343;DHT22;7771;48.478;8.936;2023-04-03T13:10:28;10.00;92.20
15343;DHT22;7771;48.478;8.936;2023-04-03T13:12:58;10.10;92.10
15343;DHT22;7771;48.478;8.936;2023-04-03T13:15:29;10.10;91.80
15343;DHT22;7771;48.478;8.936;2023-04-03T13:17:55;10.10;91.80
15343;DHT22;7771;48.478;8.936;2023-04-03T13:20:25;10.20;92.00
15343;DHT22;7771;48.478;8.936;2023-04-03T13:22:53;10.20;91.70
15343;DHT22;7771;48.478;8.936;2023-04-03T13:25:18;10.10;91.70
15343;DHT22;7771;48.478;8.936;2023-04-03T13:27:45;10.20;91.80
15343;DHT22;7771;48.478;8.936;2023-04-03T13:30:27;10.10;92.20
15343;DHT22;7771;48.478;8.936;2023-04-03T13:32:53;10.20;91.70
15343;DHT22;7771;48.478;8.936;2023-04-03T13:35:36;10.30;91.20
15343;DHT22;7771;48.478;8.936;2023-04-03T13:38:07;10.10;91.90
15343;DHT22;7771;48.478;8.936;2023-04-03T13:40:33;10.10;91.80
15343;DHT22;7771;48.478;8.936;2023-04-03T13:43:03;10.10;92.10
15343;DHT22;7771;48.478;8.936;2023-04-03T13:45:29;10.10;91.80
15343;DHT22;7771;48.478;8.936;2023-04-03T13:48:18;10.20;91.80
15343;DHT22;7771;48.478;8.936;2023-04-03T13:51:05;10.30;92.10
15343;DHT22;7771;48.478;8.936;2023-04-03T13:53:32;10.40;91.30
15343;DHT22;7771;48.478;8.936;2023-04-03T13:56:09;10.40;91.10
15343;DHT22;7771;48.478;8.936;2023-04-03T13:58:35;10.30;91.00
15343;DHT22;7771;48.478;8.936;2023-04-03T14:01:25;10.10;91.30
15343;DHT22;7771;48.478;8.936;2023-04-03T14:06:19;10.00;91.60
15343;DHT22;7771;48.478;8.936;2023-04-03T14:08:46;10.00;91.90
15343;DHT22;7771;48.478;8.936;2023-04-03T14:11:20;10.00;92.20
15343;DHT22;7771;48.478;8.936;2023-04-03T14:13:46;10.00;91.60
15343;DHT22;7771;48.478;8.936;2023-04-03T14:16:15;10.00;91.50
15343;DHT22;7771;48.478;8.936;2023-04-03T14:18:43;10.00;91.70
15343;DHT22;7771;48.478;8.936;2023-04-03T14:21:10;10.10;91.50
15343;DHT22;7771;48.478;8.936;2023-04-03T14:23:35;10.10;91.40
15343;DHT22;7771;48.478;8.936;2023-04-03T14:26:02;10.20;90.90
15343;DHT22;7771;48.478;8.936;2023-04-03T14:28:30;10.30;90.70
15343;DHT22;7771;48.478;8.936;2023-04-03T14:30:56;10.20;90.50
15343;DHT22;7771;48.478;8.936;2023-04-03T14:33:23;10.20;90.90
15343;DHT22;7771;48.478;8.936;2023-04-03T14:35:51;10.20;90.80
15343;DHT22;7771;48.478;8.936;2023-04-03T14:38:24;10.20;90.70
15343;DHT22;7771;48.478;8.936;2023-04-03T14:40:50;10.10;91.10
15343;DHT22;7771;48.478;8.936;2023-04-03T14:43:17;10.10;90.90
15343;DHT22;7771;48.478;8.936;2023-04-03T14:45:44;10.10;91.10
15343;DHT22;7771;48.478;8.936;2023-04-03T14:48:15;10.00;91.40
15343;DHT22;7771;48.478;8.936;2023-04-03T14:50:39;10.00;91.40
15343;DHT22;7771;48.478;8.936;2023-04-03T14:53:06;10.00;90.90
15343;DHT22;7771;48.478;8.936;2023-04-03T14:55:32;10.00;90.70
15343;DHT22;7771;48.478;8.936;2023-04-03T14:57:59;10.00;90.80
15343;DHT22;7771;48.478;8.936;2023-04-03T15:00:27;10.10;90.60
15343;DHT22;7771;48.478;8.936;2023-04-03T15:02:52;10.10;91.00
15343;DHT22;7771;48.478;8.936;2023-04-03T15:05:20;10.20;90.70
15343;DHT22;7771;48.478;8.936;2023-04-03T15:07:50;10.10;90.30
15343;DHT22;7771;48.478;8.936;2023-04-03T15:10:17;10.10;91.00
15343;DHT22;7771;48.478;8.936;2023-04-03T15:12:43;10.10;91.20
15343;DHT22;7771;48.478;8.936;2023-04-03T15:15:09;10.10;91.20
15343;DHT22;7771;48.478;8.936;2023-04-03T15:17:36;10.10;91.00
15343;DHT22;7771;48.478;8.936;2023-04-03T15:20:05;10.10;90.80
15343;DHT22;7771;48.478;8.936;2023-04-03T15:22:30;10.00;90.50
15343;DHT22;7771;48.478;8.936;2023-04-03T15:24:57;10.00;90.80
15343;DHT22;7771;48.478;8.936;2023-04-03T15:27:24;9.90;91.00
15343;DHT22;7771;48.478;8.936;2023-04-03T15:29:51;9.80;90.90
15343;DHT22;7771;48.478;8.936;2023-04-03T15:32:18;9.80;91.10
15343;DHT22;7771;48.478;8.936;2023-04-03T15:34:45;9.80;90.80
15343;DHT22;7771;48.478;8.936;2023-04-03T15:37:12;9.70;91.00
15343;DHT22;7771;48.478;8.936;2023-04-03T15:39:39;9.60;91.10
15343;DHT22;7771;48.478;8.936;2023-04-03T15:42:06;9.60;91.20
15343;DHT22;7771;48.478;8.936;2023-04-03T15:44:34;9.70;90.90
15343;DHT22;7771;48.478;8.936;2023-04-03T15:47:01;9.70;90.60
15343;DHT22;7771;48.478;8.936;2023-04-03T15:49:28;9.70;90.70
15343;DHT22;7771;48.478;8.936;2023-04-03T15:51:54;9.50;90.60
15343;DHT22;7771;48.478;8.936;2023-04-03T15:54:22;9.50;91.10
15343;DHT22;7771;48.478;8.936;2023-04-03T15:56:49;9.60;90.50
15343;DHT22;7771;48.478;8.936;2023-04-03T15:59:16;9.60;90.40
15343;DHT22;7771;48.478;8.936;2023-04-03T16:01:44;9.60;90.80
15343;DHT22;7771;48.478;8.936;2023-04-03T16:04:11;9.50;90.60
15343;DHT22;7771;48.478;8.936;2023-04-03T16:06:38;9.60;90.50
15343;DHT22;7771;48.478;8.936;2023-04-03T16:09:05;9.60;90.50
15343;DHT22;7771;48.478;8.936;2023-04-03T16:11:33;9.50;90.70
15343;DHT22;7771;48.478;8.936;2023-04-03T16:13:59;9.40;91.00
15343;DHT22;7771;48.478;8.936;2023-04-03T16:16:27;9.40;91.60
15343;DHT22;7771;48.478;8.936;2023-04-03T16:18:54;9.40;91.50
15343;DHT22;7771;48.478;8.936;2023-04-03T16:21:22;9.40;91.60
15343;DHT22;7771;48.478;8.936;2023-04-03T16:23:50;9.30;91.60
15343;DHT22;7771;48.478;8.936;2023-04-03T16:26:17;9.30;91.70
15343;DHT22;7771;48.478;8.936;2023-04-03T16:28:44;9.30;91.60
15343;DHT22;7771;48.478;8.936;2023-04-03T16:31:14;9.20;91.30
15343;DHT22;7771;48.478;8.936;2023-04-03T16:33:41;9.20;90.80
15343;DHT22;7771;48.478;8.936;2023-04-03T16:36:09;9.10;91.10
15343;DHT22;7771;48.478;8.936;2023-04-03T16:38:36;9.00;91.10
15343;DHT22;7771;48.478;8.936;2023-04-03T16:41:03;8.90;91.30
15343;DHT22;7771;48.478;8.936;2023-04-03T16:43:31;8.90;91.20
15343;DHT22;7771;48.478;8.936;2023-04-03T16:45:58;8.80;91.20